Elk Grove Village, Illinois
Current Conditions -  °F | °C
As of 10:51 PM on Saturday 25 Oct 2014 (Local Time) from KORD Reporting Station
Clear Clear  
Wind Chill: 53°   Ceiling: Unl
Heat Index: 53°   Visibility: 10mi
Dew Point: 30°   Wind: 7mph
Humidity: 41%   Direction: 300°WNW
Pressure: 29.97"   Gusts: NA
Location:  42°N, 88.01°W
Report Text: KORD 260351Z 30006KT 10SM CLR 12/M01 A2997 RMK AO2 SLP147 T01171011
Loading
Personal Weather Stations






























Interactive Weather Map
Tropical Storm Tracking
New forecast layout! Learn more

10-Day Weather Forecast

Advertisements
Track Severe Weather on mobile